Data Viewer
| City | State | Eastern Time | Source | Temp | DewPt | RH | BP | 5 Min Precip | Wind Speed | Wind Dir | 5 Min Wind Max | 5 Min Wind Max Dir |
|---|---|---|---|---|---|---|---|---|---|---|---|---|
| Fort Dix | NJ | 2026-05-09 10:00 | USFS | 68 | 50 | 53 | 0.00 | 4 | SW | 16 | SW | |
| Fort Dix | NJ | 2026-05-10 01:50 | USFS | 52 | 1 | 0.00 | 1 | SE | 3 | E | ||
| Fort Dix | NJ | 2026-05-10 02:20 | USFS | 51 | 1 | 0.00 | 1 | SE | 3 | SE | ||
| Fort Dix | NJ | 2026-05-10 02:15 | USFS | 52 | -40 | 1 | 0.00 | 1 | ESE | 3 | ESE | |
| Fort Dix | NJ | 2026-05-10 02:10 | USFS | 51 | -40 | 1 | 0.00 | 1 | ENE | 3 | E | |
| Fort Dix | NJ | 2026-05-10 02:05 | USFS | 52 | -40 | 1 | 0.00 | 3 | E | 3 | ESE | |
| Fort Dix | NJ | 2026-05-10 02:00 | USFS | 51 | 1 | 0.00 | 1 | E | 3 | E | ||
| Fort Dix | NJ | 2026-05-10 01:55 | USFS | 52 | -40 | 1 | 0.00 | 2 | ESE | 4 | ESE | |
| Fort Dix | NJ | 2026-05-10 01:45 | USFS | 52 | -40 | 1 | 0.00 | 2 | E | 2 | E | |
| Fort Dix | NJ | 2026-05-10 02:30 | USFS | 52 | -40 | 1 | 0.00 | 2 | SE | 3 | ESE | |
| Fort Dix | NJ | 2026-05-10 01:40 | USFS | 52 | -40 | 1 | 0.00 | 1 | E | 2 | ESE | |
| Fort Dix | NJ | 2026-05-10 01:35 | USFS | 52 | 1 | 0.00 | 1 | E | 4 | ESE | ||
| Fort Dix | NJ | 2026-05-10 01:30 | USFS | 52 | 1 | 0.00 | 2 | E | 3 | E | ||
| Fort Dix | NJ | 2026-05-10 01:25 | USFS | 52 | 1 | 0.00 | 0 | SSE | 2 | NE | ||
| Fort Dix | NJ | 2026-05-10 01:20 | USFS | 52 | -40 | 1 | 0.00 | 0 | ENE | 3 | ESE | |
| Fort Dix | NJ | 2026-05-10 01:15 | USFS | 52 | 1 | 0.00 | 2 | E | 4 | ESE | ||
| Fort Dix | NJ | 2026-05-10 02:25 | USFS | 52 | -40 | 1 | 0.00 | 2 | ESE | 4 | ESE | |
| Fort Dix | NJ | 2026-05-10 02:35 | USFS | 52 | -40 | 1 | 0.00 | 0 | ESE | 3 | SE | |
| Fort Dix | NJ | 2026-05-10 01:05 | USFS | 52 | 1 | 0.00 | 0 | ENE | 3 | E | ||
| Fort Dix | NJ | 2026-05-10 03:20 | USFS | 51 | 1 | 0.00 | 1 | SE | 3 | SE | ||
| Fort Dix | NJ | 2026-05-10 03:50 | USFS | 52 | 1 | 0.00 | 1 | ESE | 2 | ESE | ||
| Fort Dix | NJ | 2026-05-10 03:45 | USFS | 52 | -40 | 1 | 0.00 | 2 | E | 3 | E | |
| Fort Dix | NJ | 2026-05-10 03:40 | USFS | 51 | 1 | 0.00 | 1 | ESE | 2 | ESE | ||
| Fort Dix | NJ | 2026-05-10 03:35 | USFS | 51 | 1 | 0.00 | 1 | ESE | 3 | SE | ||
| Fort Dix | NJ | 2026-05-10 03:30 | USFS | 51 | 1 | 0.00 | 2 | SSE | 3 | SSE | ||
| Fort Dix | NJ | 2026-05-10 03:25 | USFS | 51 | -40 | 1 | 0.00 | 2 | SSE | 3 | SSE | |
| Fort Dix | NJ | 2026-05-10 03:15 | USFS | 51 | -40 | 1 | 0.00 | 1 | SE | 3 | SE | |
| Fort Dix | NJ | 2026-05-10 02:40 | USFS | 52 | -40 | 1 | 0.00 | 2 | SE | 3 | SE | |
| Fort Dix | NJ | 2026-05-10 03:10 | USFS | 51 | -40 | 1 | 0.00 | 2 | ESE | 4 | SE | |
| Fort Dix | NJ | 2026-05-10 03:05 | USFS | 51 | 1 | 0.00 | 3 | SE | 4 | ESE | ||
| Fort Dix | NJ | 2026-05-10 03:00 | USFS | 51 | 1 | 0.00 | 3 | ESE | 4 | SSE | ||
| Fort Dix | NJ | 2026-05-10 02:55 | USFS | 51 | -40 | 1 | 0.00 | 1 | SSE | 4 | SE | |
| Fort Dix | NJ | 2026-05-10 02:50 | USFS | 51 | -40 | 1 | 0.00 | 2 | SE | 3 | SE | |
| Fort Dix | NJ | 2026-05-10 02:45 | USFS | 52 | -40 | 1 | 0.00 | 2 | SSE | 3 | SE | |
| Fort Dix | NJ | 2026-05-10 01:10 | USFS | 52 | 1 | 0.00 | 1 | E | 3 | ENE | ||
| Fort Dix | NJ | 2026-05-10 01:00 | USFS | 52 | -40 | 1 | 0.00 | 2 | ESE | 3 | ENE | |
| Fort Dix | NJ | 2026-05-10 04:00 | USFS | 51 | 1 | 0.00 | 2 | NE | 2 | E | ||
| Fort Dix | NJ | 2026-05-09 22:50 | USFS | 53 | 53 | 101 | 0.00 | 1 | ESE | 5 | E | |
| Fort Dix | NJ | 2026-05-09 23:20 | USFS | 53 | -40 | 1 | 0.00 | 1 | E | 3 | ESE | |
| Fort Dix | NJ | 2026-05-09 23:15 | USFS | 53 | 53 | 101 | 0.00 | 1 | ESE | 4 | E | |
| Fort Dix | NJ | 2026-05-09 23:10 | USFS | 53 | 53 | 101 | 0.00 | 0 | E | 4 | ESE | |
| Fort Dix | NJ | 2026-05-09 23:05 | USFS | 53 | 53 | 101 | 0.00 | 1 | NE | 4 | ESE | |
| Fort Dix | NJ | 2026-05-09 23:00 | USFS | 53 | 53 | 101 | 0.00 | 1 | E | 4 | E | |
| Fort Dix | NJ | 2026-05-09 22:55 | USFS | 53 | 53 | 101 | 0.00 | 1 | E | 3 | E | |
| Fort Dix | NJ | 2026-05-09 22:45 | USFS | 53 | 53 | 101 | 0.00 | 2 | ESE | 4 | E | |
| Fort Dix | NJ | 2026-05-09 23:30 | USFS | 53 | 1 | 0.00 | 1 | ENE | 3 | ESE | ||
| Fort Dix | NJ | 2026-05-09 22:40 | USFS | 53 | 53 | 101 | 0.00 | 3 | SE | 4 | E | |
| Fort Dix | NJ | 2026-05-09 22:35 | USFS | 54 | 53 | 100 | 0.00 | 1 | ESE | 4 | ESE | |
| Fort Dix | NJ | 2026-05-09 22:30 | USFS | 54 | 54 | 101 | 0.00 | 4 | ESE | 6 | ESE | |
| Fort Dix | NJ | 2026-05-09 22:25 | USFS | 54 | 54 | 100 | 0.00 | 2 | E | 5 | ESE | |
| Fort Dix | NJ | 2026-05-09 22:20 | USFS | 54 | 54 | 100 | 0.00 | 3 | E | 4 | E | |
| Fort Dix | NJ | 2026-05-09 22:15 | USFS | 54 | 54 | 100 | 0.00 | 2 | E | 3 | E | |
| Fort Dix | NJ | 2026-05-09 23:25 | USFS | 53 | -40 | 1 | 0.00 | 2 | ESE | 3 | SE | |
| Fort Dix | NJ | 2026-05-09 23:35 | USFS | 53 | 1 | 0.00 | 2 | E | 3 | E | ||
| Fort Dix | NJ | 2026-05-10 00:55 | USFS | 52 | -40 | 1 | 0.00 | 2 | E | 3 | E | |
| Fort Dix | NJ | 2026-05-10 00:20 | USFS | 52 | 1 | 0.00 | 1 | ESE | 2 | E | ||
| Fort Dix | NJ | 2026-05-10 00:50 | USFS | 52 | -40 | 1 | 0.00 | 1 | E | 2 | E | |
| Fort Dix | NJ | 2026-05-10 00:45 | USFS | 52 | -40 | 1 | 0.00 | 1 | E | 3 | ESE | |
| Fort Dix | NJ | 2026-05-10 00:40 | USFS | 52 | 1 | 0.00 | 1 | E | 3 | ESE | ||
| Fort Dix | NJ | 2026-05-10 00:35 | USFS | 52 | -40 | 1 | 0.00 | 2 | SE | 2 | SE | |
| Fort Dix | NJ | 2026-05-10 00:30 | USFS | 52 | -40 | 1 | 0.00 | 1 | SE | 2 | ESE | |
| Fort Dix | NJ | 2026-05-10 00:25 | USFS | 52 | 1 | 0.00 | 1 | SE | 2 | SE | ||
| Fort Dix | NJ | 2026-05-10 00:15 | USFS | 52 | 1 | 0.00 | 1 | ESE | 2 | ESE | ||
| Fort Dix | NJ | 2026-05-09 23:40 | USFS | 53 | -40 | 1 | 0.00 | 1 | E | 2 | ENE | |
| Fort Dix | NJ | 2026-05-10 00:10 | USFS | 52 | 1 | 0.00 | 2 | ENE | 2 | ENE | ||
| Fort Dix | NJ | 2026-05-10 00:05 | USFS | 52 | 1 | 0.00 | 0 | NE | 2 | ENE | ||
| Fort Dix | NJ | 2026-05-10 00:00 | USFS | 52 | 1 | 0.00 | 1 | E | 2 | ENE | ||
| Fort Dix | NJ | 2026-05-09 23:55 | USFS | 52 | 1 | 0.00 | 0 | ENE | 2 | E | ||
| Fort Dix | NJ | 2026-05-09 23:50 | USFS | 52 | -40 | 1 | 0.00 | 1 | E | 3 | E | |
| Fort Dix | NJ | 2026-05-09 23:45 | USFS | 52 | 1 | 0.00 | 2 | E | 3 | E | ||
| Fort Dix | NJ | 2026-05-10 03:55 | USFS | 52 | 1 | 0.00 | 1 | ENE | 2 | ESE | ||
| Fort Dix | NJ | 2026-05-10 04:05 | USFS | 51 | 1 | 0.00 | 1 | NNE | 3 | NE | ||
| Fort Dix | NJ | 2026-05-09 22:05 | USFS | 54 | 54 | 100 | 0.00 | 2 | ESE | 4 | ESE | |
| Fort Dix | NJ | 2026-05-10 07:50 | USFS | 53 | -40 | 1 | 0.00 | 2 | ENE | 3 | ENE | |
| Fort Dix | NJ | 2026-05-10 08:20 | USFS | 54 | -39 | 1 | 0.00 | 1 | WSW | 2 | NNW | |
| Fort Dix | NJ | 2026-05-10 08:15 | USFS | 54 | -39 | 1 | 0.00 | 0 | ESE | 2 | N | |
| Fort Dix | NJ | 2026-05-10 08:10 | USFS | 54 | -39 | 1 | 0.00 | 1 | NNW | 4 | N | |
| Fort Dix | NJ | 2026-05-10 08:05 | USFS | 54 | -39 | 1 | 0.00 | 2 | NNW | 3 | N | |
| Fort Dix | NJ | 2026-05-10 08:00 | USFS | 53 | -39 | 1 | 0.00 | 2 | N | 4 | NNW | |
| Fort Dix | NJ | 2026-05-10 07:55 | USFS | 53 | -39 | 1 | 0.00 | 3 | NNW | 4 | NNW | |
| Fort Dix | NJ | 2026-05-10 07:45 | USFS | 53 | -40 | 1 | 0.00 | 2 | NNE | 3 | ENE | |
| Fort Dix | NJ | 2026-05-10 08:30 | USFS | 55 | -38 | 1 | 0.00 | 1 | SE | 1 | ESE | |
| Fort Dix | NJ | 2026-05-10 07:40 | USFS | 53 | -40 | 1 | 0.00 | 3 | NE | 3 | N | |
| Fort Dix | NJ | 2026-05-10 07:35 | USFS | 52 | -40 | 1 | 0.00 | 1 | NNW | 2 | N | |
| Fort Dix | NJ | 2026-05-10 07:30 | USFS | 52 | -40 | 1 | 0.00 | 0 | NNW | 2 | NNE | |
| Fort Dix | NJ | 2026-05-10 07:25 | USFS | 52 | 1 | 0.00 | 2 | NE | 3 | NE | ||
| Fort Dix | NJ | 2026-05-10 07:20 | USFS | 52 | -40 | 1 | 0.00 | 1 | NNE | 3 | SE | |
| Fort Dix | NJ | 2026-05-10 07:15 | USFS | 52 | -40 | 1 | 0.00 | 0 | NE | 5 | E | |
| Fort Dix | NJ | 2026-05-10 08:25 | USFS | 54 | -38 | 1 | 0.00 | 0 | WNW | 3 | WNW | |
| Fort Dix | NJ | 2026-05-10 08:35 | USFS | 54 | -39 | 1 | 0.00 | 1 | SSE | 2 | SE | |
| Fort Dix | NJ | 2026-05-10 07:05 | USFS | 51 | 1 | 0.00 | 3 | ESE | 5 | ENE | ||
| Fort Dix | NJ | 2026-05-10 09:20 | USFS | 55 | -38 | 1 | 0.00 | 1 | S | 5 | NW | |
| Fort Dix | NJ | 2026-05-10 09:50 | USFS | 57 | -37 | 1 | 0.00 | 2 | WSW | 3 | WSW | |
| Fort Dix | NJ | 2026-05-10 09:45 | USFS | 57 | -37 | 1 | 0.00 | 1 | SW | 4 | WNW | |
| Fort Dix | NJ | 2026-05-10 09:40 | USFS | 56 | -37 | 1 | 0.00 | 1 | NNW | 3 | W | |
| Fort Dix | NJ | 2026-05-10 09:35 | USFS | 56 | -37 | 1 | 0.00 | 1 | WNW | 2 | WNW | |
| Fort Dix | NJ | 2026-05-10 09:30 | USFS | 56 | -37 | 1 | 0.00 | 2 | WNW | 3 | NW | |
| Fort Dix | NJ | 2026-05-10 09:25 | USFS | 55 | -38 | 1 | 0.00 | 3 | NW | 4 | NW | |
| Fort Dix | NJ | 2026-05-10 09:15 | USFS | 55 | -37 | 1 | 0.00 | 3 | NW | 4 | NNW | |
| Fort Dix | NJ | 2026-05-10 08:40 | USFS | 54 | -39 | 1 | 0.00 | 1 | WNW | 3 | SW | |
| Fort Dix | NJ | 2026-05-10 09:10 | USFS | 55 | -39 | 1 | 0.00 | 1 | NW | 2 | NNW | |
| Fort Dix | NJ | 2026-05-10 09:05 | USFS | 56 | -36 | 2 | 0.00 | 0 | ENE | 2 | N | |
| Fort Dix | NJ | 2026-05-10 09:00 | USFS | 56 | -37 | 1 | 0.00 | 0 | E | 3 | N | |
| Fort Dix | NJ | 2026-05-10 08:55 | USFS | 55 | -38 | 1 | 0.00 | 2 | NNW | 2 | S | |
| Fort Dix | NJ | 2026-05-10 08:50 | USFS | 55 | -39 | 1 | 0.00 | 1 | ESE | 2 | E | |
| Fort Dix | NJ | 2026-05-10 08:45 | USFS | 55 | -38 | 1 | 0.00 | 2 | ESE | 3 | W | |
| Fort Dix | NJ | 2026-05-10 07:10 | USFS | 51 | 1 | 0.00 | 5 | E | 6 | E | ||
| Fort Dix | NJ | 2026-05-10 07:00 | USFS | 51 | 1 | 0.00 | 2 | ESE | 4 | NNE | ||
| Fort Dix | NJ | 2026-05-10 04:10 | USFS | 51 | 1 | 0.00 | 1 | NNE | 2 | NNE | ||
| Fort Dix | NJ | 2026-05-10 04:50 | USFS | 49 | 1 | 0.00 | 3 | N | 4 | N | ||
| Fort Dix | NJ | 2026-05-10 05:20 | USFS | 49 | 1 | 0.00 | 2 | NE | 2 | ENE | ||
| Fort Dix | NJ | 2026-05-10 05:15 | USFS | 49 | 1 | 0.00 | 1 | NE | 2 | ENE | ||
| Fort Dix | NJ | 2026-05-10 05:10 | USFS | 49 | 1 | 0.00 | 1 | NNE | 2 | NE | ||
| Fort Dix | NJ | 2026-05-10 05:05 | USFS | 49 | 1 | 0.00 | 2 | ENE | 3 | NE | ||
| Fort Dix | NJ | 2026-05-10 05:00 | USFS | 49 | 1 | 0.00 | 1 | NNE | 4 | N | ||
| Fort Dix | NJ | 2026-05-10 04:55 | USFS | 49 | 38 | 65 | 0.00 | 1 | NE | 3 | NNE | |
| Fort Dix | NJ | 2026-05-10 04:45 | USFS | 50 | 1 | 0.00 | 2 | NNW | 3 | N | ||
| Fort Dix | NJ | 2026-05-10 05:30 | USFS | 49 | 1 | 0.00 | 2 | NE | 3 | NE | ||
| Fort Dix | NJ | 2026-05-10 04:40 | USFS | 50 | 1 | 0.00 | 1 | N | 1 | N | ||
| Fort Dix | NJ | 2026-05-10 04:35 | USFS | 50 | 1 | 0.00 | 0 | NNE | 2 | NNE | ||
| Fort Dix | NJ | 2026-05-10 04:30 | USFS | 50 | 1 | 0.00 | 1 | NNE | 2 | NNE | ||
| Fort Dix | NJ | 2026-05-10 04:25 | USFS | 50 | 1 | 0.00 | 1 | NNE | 2 | NNE | ||
| Fort Dix | NJ | 2026-05-10 04:20 | USFS | 50 | 1 | 0.00 | 2 | NNE | 2 | NE | ||
| Fort Dix | NJ | 2026-05-10 04:15 | USFS | 51 | 1 | 0.00 | 2 | NE | 2 | ENE | ||
| Fort Dix | NJ | 2026-05-10 05:25 | USFS | 49 | 1 | 0.00 | 2 | ENE | 2 | NE | ||
| Fort Dix | NJ | 2026-05-10 05:35 | USFS | 49 | 1 | 0.00 | 2 | ENE | 3 | ENE | ||
| Fort Dix | NJ | 2026-05-10 06:55 | USFS | 51 | 1 | 0.00 | 2 | E | 4 | NE | ||
| Fort Dix | NJ | 2026-05-10 06:20 | USFS | 50 | 1 | 0.01 | 1 | NNW | 7 | N | ||
| Fort Dix | NJ | 2026-05-10 06:50 | USFS | 51 | 1 | 0.00 | 1 | ENE | 5 | NE | ||
| Fort Dix | NJ | 2026-05-10 06:45 | USFS | 51 | 1 | 0.00 | 2 | NE | 5 | NE | ||
| Fort Dix | NJ | 2026-05-10 06:40 | USFS | 51 | 1 | 0.00 | 1 | NE | 3 | NNE | ||
| Fort Dix | NJ | 2026-05-10 06:35 | USFS | 50 | 1 | 0.00 | 4 | N | 4 | NNE | ||
| Fort Dix | NJ | 2026-05-10 06:30 | USFS | 50 | 1 | 0.00 | 2 | N | 5 | N | ||
| Fort Dix | NJ | 2026-05-10 06:25 | USFS | 50 | 1 | 0.00 | 5 | NNW | 6 | N | ||
| Fort Dix | NJ | 2026-05-10 06:15 | USFS | 50 | 1 | 0.00 | 5 | NNE | 6 | NNE | ||
| Fort Dix | NJ | 2026-05-10 05:40 | USFS | 49 | 1 | 0.00 | 1 | ENE | 3 | E | ||
| Fort Dix | NJ | 2026-05-10 06:10 | USFS | 49 | 1 | 0.00 | 4 | N | 5 | N | ||
| Fort Dix | NJ | 2026-05-10 06:05 | USFS | 49 | 1 | 0.00 | 1 | NNW | 8 | NNW | ||
| Fort Dix | NJ | 2026-05-10 06:00 | USFS | 49 | 1 | 0.00 | 2 | W | 5 | WNW | ||
| Fort Dix | NJ | 2026-05-10 05:55 | USFS | 49 | -37 | 2 | 0.00 | 4 | NW | 5 | NW | |
| Fort Dix | NJ | 2026-05-10 05:50 | USFS | 49 | 1 | 0.00 | 3 | NNW | 3 | NNW | ||
| Fort Dix | NJ | 2026-05-10 05:45 | USFS | 49 | 1 | 0.00 | 2 | NE | 3 | E | ||
| Fort Dix | NJ | 2026-05-09 22:10 | USFS | 54 | 54 | 100 | 0.00 | 1 | E | 4 | ESE | |
| Fort Dix | NJ | 2026-05-09 22:00 | USFS | 54 | 54 | 100 | 0.00 | 2 | E | 4 | E | |
| Fort Dix | NJ | 2026-05-09 10:05 | USFS | 69 | 51 | 52 | 0.00 | 2 | SSW | 17 | S | |
| Fort Dix | NJ | 2026-05-09 13:45 | USFS | 72 | 48 | 43 | 0.00 | 5 | S | 11 | WSW | |
| Fort Dix | NJ | 2026-05-09 14:15 | USFS | 73 | 47 | 40 | 0.00 | 5 | SW | 17 | W | |
| Fort Dix | NJ | 2026-05-09 14:10 | USFS | 73 | 46 | 39 | 0.00 | 12 | SSW | 14 | WNW | |
| Fort Dix | NJ | 2026-05-09 14:05 | USFS | 72 | 49 | 44 | 0.00 | 4 | SW | 12 | SSW | |
| Fort Dix | NJ | 2026-05-09 14:00 | USFS | 72 | 49 | 44 | 0.00 | 2 | SW | 12 | SSW | |
| Fort Dix | NJ | 2026-05-09 13:55 | USFS | 71 | 48 | 43 | 0.00 | 7 | SW | 15 | SW | |
| Fort Dix | NJ | 2026-05-09 13:50 | USFS | 71 | 48 | 44 | 0.00 | 4 | SSW | 12 | SSW | |
| Fort Dix | NJ | 2026-05-09 13:40 | USFS | 71 | 49 | 45 | 0.00 | 2 | S | 11 | WSW | |
| Fort Dix | NJ | 2026-05-09 14:25 | USFS | 71 | 51 | 48 | 0.00 | 1 | W | 14 | SSW | |
| Fort Dix | NJ | 2026-05-09 13:35 | USFS | 71 | 48 | 44 | 0.00 | 10 | WSW | 14 | SW | |
| Fort Dix | NJ | 2026-05-09 13:30 | USFS | 71 | 48 | 44 | 0.00 | 3 | S | 17 | WSW | |
| Fort Dix | NJ | 2026-05-09 13:25 | USFS | 71 | 48 | 44 | 0.00 | 3 | SW | 14 | WSW | |
| Fort Dix | NJ | 2026-05-09 13:20 | USFS | 71 | 48 | 45 | 0.00 | 4 | SSW | 13 | W | |
| Fort Dix | NJ | 2026-05-09 13:15 | USFS | 71 | 48 | 44 | 0.00 | 1 | WNW | 15 | W | |
| Fort Dix | NJ | 2026-05-09 13:10 | USFS | 71 | 48 | 44 | 0.00 | 2 | SW | 18 | S | |
| Fort Dix | NJ | 2026-05-09 14:20 | USFS | 72 | 49 | 44 | 0.00 | 4 | SW | 17 | S | |
| Fort Dix | NJ | 2026-05-09 14:30 | USFS | 69 | 51 | 53 | 0.00 | 12 | NNW | 14 | NNW | |
| Fort Dix | NJ | 2026-05-09 13:00 | USFS | 72 | 48 | 42 | 0.00 | 15 | S | 16 | SSW | |
| Fort Dix | NJ | 2026-05-09 15:15 | USFS | 64 | 51 | 63 | 0.00 | 2 | NNW | 10 | N | |
| Fort Dix | NJ | 2026-05-09 15:45 | USFS | 65 | 51 | 62 | 0.00 | 3 | NNW | 8 | NNW | |
| Fort Dix | NJ | 2026-05-09 15:40 | USFS | 64 | 51 | 62 | 0.00 | 5 | NNW | 7 | NW | |
| Fort Dix | NJ | 2026-05-09 15:35 | USFS | 64 | 51 | 64 | 0.00 | 2 | NNW | 6 | NW | |
| Fort Dix | NJ | 2026-05-09 15:30 | USFS | 63 | 51 | 63 | 0.00 | 4 | N | 10 | NNW | |
| Fort Dix | NJ | 2026-05-09 15:25 | USFS | 64 | 51 | 64 | 0.00 | 4 | NNE | 7 | NNE | |
| Fort Dix | NJ | 2026-05-09 15:20 | USFS | 63 | 51 | 63 | 0.00 | 1 | N | 8 | NNW | |
| Fort Dix | NJ | 2026-05-09 15:10 | USFS | 64 | 51 | 62 | 0.00 | 4 | N | 11 | NNW | |
| Fort Dix | NJ | 2026-05-09 14:35 | USFS | 67 | 51 | 58 | 0.00 | 5 | N | 12 | NNW | |
| Fort Dix | NJ | 2026-05-09 15:05 | USFS | 64 | 51 | 62 | 0.00 | 6 | N | 10 | N | |
| Fort Dix | NJ | 2026-05-09 15:00 | USFS | 64 | 50 | 61 | 0.00 | 2 | NNW | 8 | N | |
| Fort Dix | NJ | 2026-05-09 14:55 | USFS | 64 | 51 | 61 | 0.00 | 1 | N | 8 | NNW | |
| Fort Dix | NJ | 2026-05-09 14:50 | USFS | 65 | 51 | 60 | 0.00 | 6 | NW | 9 | N | |
| Fort Dix | NJ | 2026-05-09 14:45 | USFS | 66 | 51 | 60 | 0.00 | 0 | SW | 7 | NE | |
| Fort Dix | NJ | 2026-05-09 14:40 | USFS | 65 | 51 | 60 | 0.00 | 1 | NW | 13 | NNW | |
| Fort Dix | NJ | 2026-05-09 13:05 | USFS | 71 | 47 | 42 | 0.00 | 8 | SW | 14 | SW | |
| Fort Dix | NJ | 2026-05-09 12:55 | USFS | 71 | 49 | 45 | 0.00 | 3 | SW | 16 | W | |
| Fort Dix | NJ | 2026-05-09 15:55 | USFS | 65 | 51 | 61 | 0.00 | 7 | NE | 9 | NNE | |
| Fort Dix | NJ | 2026-05-09 10:45 | USFS | 70 | 49 | 48 | 0.00 | 3 | S | 13 | SSW | |
| Fort Dix | NJ | 2026-05-09 11:15 | USFS | 71 | 47 | 42 | 0.00 | 10 | WSW | 21 | SW | |
| Fort Dix | NJ | 2026-05-09 11:10 | USFS | 70 | 45 | 41 | 0.00 | 15 | SSW | 26 | SW | |
| Fort Dix | NJ | 2026-05-09 11:05 | USFS | 71 | 47 | 43 | 0.00 | 7 | WSW | 17 | SSW | |
| Fort Dix | NJ | 2026-05-09 11:00 | USFS | 70 | 48 | 46 | 0.00 | 2 | W | 24 | SSW | |
| Fort Dix | NJ | 2026-05-09 10:55 | USFS | 70 | 48 | 45 | 0.00 | 9 | SSE | 18 | SW | |
| Fort Dix | NJ | 2026-05-09 10:50 | USFS | 70 | 48 | 47 | 0.00 | 6 | SSW | 18 | S | |
| Fort Dix | NJ | 2026-05-09 10:40 | USFS | 69 | 49 | 48 | 0.00 | 8 | SSW | 17 | SSW | |
| Fort Dix | NJ | 2026-05-09 11:25 | USFS | 71 | 46 | 40 | 0.00 | 8 | S | 21 | S | |
| Fort Dix | NJ | 2026-05-09 10:35 | USFS | 70 | 50 | 49 | 0.00 | 5 | SW | 13 | S | |
| Fort Dix | NJ | 2026-05-09 10:30 | USFS | 69 | 49 | 49 | 0.00 | 5 | W | 19 | SSW | |
| Fort Dix | NJ | 2026-05-09 10:25 | USFS | 69 | 49 | 48 | 0.00 | 12 | WSW | 15 | SSW | |
| Fort Dix | NJ | 2026-05-09 10:20 | USFS | 69 | 49 | 49 | 0.00 | 7 | S | 12 | SW | |
| Fort Dix | NJ | 2026-05-09 10:15 | USFS | 70 | 51 | 51 | 0.00 | 2 | SW | 17 | S | |
| Fort Dix | NJ | 2026-05-09 10:10 | USFS | 70 | 50 | 50 | 0.00 | 9 | SSW | 11 | WSW | |
| Fort Dix | NJ | 2026-05-09 11:20 | USFS | 71 | 47 | 42 | 0.00 | 5 | WNW | 20 | WSW | |
| Fort Dix | NJ | 2026-05-09 11:30 | USFS | 71 | 46 | 41 | 0.00 | 7 | S | 21 | S | |
| Fort Dix | NJ | 2026-05-09 12:50 | USFS | 71 | 48 | 44 | 0.00 | 9 | S | 13 | SW | |
| Fort Dix | NJ | 2026-05-09 12:15 | USFS | 71 | 47 | 42 | 0.00 | 14 | SW | 15 | SW | |
| Fort Dix | NJ | 2026-05-09 12:45 | USFS | 72 | 49 | 45 | 0.00 | 1 | SW | 16 | SSW | |
| Fort Dix | NJ | 2026-05-09 12:40 | USFS | 70 | 47 | 44 | 0.00 | 12 | SW | 19 | SW | |
| Fort Dix | NJ | 2026-05-09 12:35 | USFS | 71 | 48 | 44 | 0.00 | 7 | W | 13 | SW | |
| Fort Dix | NJ | 2026-05-09 12:30 | USFS | 72 | 48 | 43 | 0.00 | 3 | WSW | 12 | SSW | |
| Fort Dix | NJ | 2026-05-09 12:25 | USFS | 72 | 48 | 42 | 0.00 | 2 | SW | 9 | SW | |
| Fort Dix | NJ | 2026-05-09 12:20 | USFS | 71 | 47 | 42 | 0.00 | 6 | WSW | 15 | WSW | |
| Fort Dix | NJ | 2026-05-09 12:10 | USFS | 71 | 47 | 42 | 0.00 | 3 | SSW | 17 | S | |
| Fort Dix | NJ | 2026-05-09 11:35 | USFS | 71 | 46 | 40 | 0.00 | 18 | SSW | 18 | SSW | |
| Fort Dix | NJ | 2026-05-09 12:05 | USFS | 71 | 48 | 43 | 0.00 | 2 | SW | 13 | SW | |
| Fort Dix | NJ | 2026-05-09 12:00 | USFS | 71 | 47 | 42 | 0.00 | 5 | SSW | 20 | SSW | |
| Fort Dix | NJ | 2026-05-09 11:55 | USFS | 72 | 47 | 41 | 0.00 | 0 | NNW | 15 | SSW | |
| Fort Dix | NJ | 2026-05-09 11:50 | USFS | 72 | 46 | 40 | 0.00 | 3 | NW | 19 | WSW | |
| Fort Dix | NJ | 2026-05-09 11:45 | USFS | 72 | 46 | 39 | 0.00 | 7 | SSW | 13 | SSW | |
| Fort Dix | NJ | 2026-05-09 11:40 | USFS | 71 | 45 | 40 | 0.00 | 5 | W | 16 | SW | |
| Fort Dix | NJ | 2026-05-09 15:50 | USFS | 65 | 51 | 61 | 0.00 | 9 | NE | 10 | NE | |
| Fort Dix | NJ | 2026-05-09 16:00 | USFS | 64 | 51 | 62 | 0.00 | 6 | N | 10 | NNE | |
| Fort Dix | NJ | 2026-05-09 21:55 | USFS | 54 | 54 | 100 | 0.00 | 3 | E | 5 | E | |
| Fort Dix | NJ | 2026-05-09 19:50 | USFS | 57 | 55 | 95 | 0.01 | 0 | ESE | 1 | ENE | |
| Fort Dix | NJ | 2026-05-09 20:20 | USFS | 56 | 55 | 96 | 0.00 | 1 | ENE | 1 | ENE | |
| Fort Dix | NJ | 2026-05-09 20:15 | USFS | 56 | 55 | 96 | 0.00 | 1 | E | 1 | NE | |
| Fort Dix | NJ | 2026-05-09 20:10 | USFS | 56 | 55 | 96 | 0.00 | 0 | N | 1 | NE | |
| Fort Dix | NJ | 2026-05-09 20:05 | USFS | 56 | 55 | 95 | 0.00 | 0 | NNE | 1 | NNE | |
| Fort Dix | NJ | 2026-05-09 20:00 | USFS | 56 | 55 | 95 | 0.00 | 0 | NE | 1 | E | |
| Fort Dix | NJ | 2026-05-09 19:55 | USFS | 57 | 55 | 95 | 0.00 | 0 | E | 2 | ESE | |
| Fort Dix | NJ | 2026-05-09 19:45 | USFS | 57 | 55 | 95 | 0.00 | 1 | E | 2 | SE | |
| Fort Dix | NJ | 2026-05-09 20:30 | USFS | 56 | 55 | 97 | 0.00 | 0 | E | 2 | NE | |
| Fort Dix | NJ | 2026-05-09 19:40 | USFS | 57 | 56 | 95 | 0.00 | 1 | E | 2 | ESE | |
| Fort Dix | NJ | 2026-05-09 19:35 | USFS | 57 | 56 | 94 | 0.00 | 1 | E | 3 | SSE | |
| Fort Dix | NJ | 2026-05-09 19:30 | USFS | 58 | 56 | 94 | 0.00 | 1 | E | 2 | ESE | |
| Fort Dix | NJ | 2026-05-09 19:25 | USFS | 58 | 56 | 93 | 0.00 | 2 | ENE | 3 | ENE | |
| Fort Dix | NJ | 2026-05-09 19:20 | USFS | 58 | 56 | 93 | 0.00 | 0 | E | 3 | NE | |
| Fort Dix | NJ | 2026-05-09 19:15 | USFS | 58 | 56 | 92 | 0.00 | 1 | NE | 4 | ENE | |
| Fort Dix | NJ | 2026-05-09 20:25 | USFS | 56 | 55 | 97 | 0.00 | 1 | ENE | 2 | ENE | |
| Fort Dix | NJ | 2026-05-09 20:35 | USFS | 56 | 55 | 97 | 0.00 | 1 | SE | 3 | SE | |
| Fort Dix | NJ | 2026-05-09 19:05 | USFS | 58 | 56 | 94 | 0.00 | 1 | N | 3 | NNE | |
| Fort Dix | NJ | 2026-05-09 21:20 | USFS | 55 | 54 | 98 | 0.00 | 1 | E | 3 | SE | |
| Fort Dix | NJ | 2026-05-09 21:50 | USFS | 54 | 54 | 99 | 0.00 | 1 | E | 4 | E | |
| Fort Dix | NJ | 2026-05-09 21:45 | USFS | 55 | 54 | 99 | 0.00 | 2 | E | 4 | ESE | |
| Fort Dix | NJ | 2026-05-09 21:40 | USFS | 55 | 54 | 99 | 0.00 | 4 | ENE | 4 | E | |
| Fort Dix | NJ | 2026-05-09 21:35 | USFS | 55 | 54 | 99 | 0.00 | 4 | ESE | 4 | E | |
| Fort Dix | NJ | 2026-05-09 21:30 | USFS | 55 | 54 | 99 | 0.00 | 1 | ENE | 3 | ESE | |
| Fort Dix | NJ | 2026-05-09 21:25 | USFS | 55 | 54 | 98 | 0.00 | 2 | E | 3 | ESE | |
| Fort Dix | NJ | 2026-05-09 21:15 | USFS | 55 | 54 | 98 | 0.00 | 2 | ESE | 3 | E | |
| Fort Dix | NJ | 2026-05-09 20:40 | USFS | 56 | 55 | 97 | 0.00 | 0 | ESE | 2 | SE | |
| Fort Dix | NJ | 2026-05-09 21:10 | USFS | 55 | 54 | 98 | 0.00 | 1 | E | 3 | SE | |
| Fort Dix | NJ | 2026-05-09 21:05 | USFS | 54 | 54 | 98 | 0.00 | 1 | ESE | 2 | E | |
| Fort Dix | NJ | 2026-05-09 21:00 | USFS | 55 | 54 | 97 | 0.00 | 1 | E | 2 | ENE | |
| Fort Dix | NJ | 2026-05-09 20:55 | USFS | 55 | 54 | 97 | 0.00 | 2 | ENE | 2 | ENE | |
| Fort Dix | NJ | 2026-05-09 20:50 | USFS | 55 | 54 | 97 | 0.00 | 0 | NE | 1 | NE | |
| Fort Dix | NJ | 2026-05-09 20:45 | USFS | 55 | 55 | 97 | 0.00 | 1 | E | 2 | ENE | |
| Fort Dix | NJ | 2026-05-09 19:10 | USFS | 58 | 56 | 93 | 0.00 | 3 | NE | 4 | NE | |
| Fort Dix | NJ | 2026-05-09 19:00 | USFS | 58 | 56 | 94 | 0.00 | 1 | N | 3 | NE | |
| Fort Dix | NJ | 2026-05-09 16:05 | USFS | 65 | 52 | 63 | 0.00 | 1 | N | 7 | N | |
| Fort Dix | NJ | 2026-05-09 16:45 | USFS | 64 | 55 | 73 | 0.00 | 1 | SE | 5 | ENE | |
| Fort Dix | NJ | 2026-05-09 17:15 | USFS | 63 | 53 | 68 | 0.00 | 5 | ENE | 12 | NNE | |
| Fort Dix | NJ | 2026-05-09 17:10 | USFS | 64 | 52 | 66 | 0.00 | 4 | ENE | 9 | NE | |
| Fort Dix | NJ | 2026-05-09 17:05 | USFS | 64 | 53 | 66 | 0.00 | 1 | NNW | 9 | NNE | |
| Fort Dix | NJ | 2026-05-09 17:00 | USFS | 64 | 52 | 66 | 0.00 | 5 | NE | 11 | NNE | |
| Fort Dix | NJ | 2026-05-09 16:55 | USFS | 64 | 53 | 67 | 0.00 | 6 | NE | 6 | NE | |
| Fort Dix | NJ | 2026-05-09 16:50 | USFS | 63 | 55 | 75 | 0.00 | 3 | ENE | 6 | ENE | |
| Fort Dix | NJ | 2026-05-09 16:40 | USFS | 64 | 53 | 66 | 0.00 | 0 | NW | 5 | NNW | |
| Fort Dix | NJ | 2026-05-09 17:25 | USFS | 63 | 52 | 69 | 0.00 | 3 | NNE | 9 | NNE | |
| Fort Dix | NJ | 2026-05-09 16:35 | USFS | 64 | 52 | 66 | 0.00 | 0 | NE | 8 | NNE | |
| Fort Dix | NJ | 2026-05-09 16:30 | USFS | 64 | 52 | 65 | 0.00 | 3 | NW | 6 | NW | |
| Fort Dix | NJ | 2026-05-09 16:25 | USFS | 64 | 52 | 66 | 0.00 | 1 | NNE | 5 | N | |
| Fort Dix | NJ | 2026-05-09 16:20 | USFS | 64 | 53 | 68 | 0.00 | 2 | WNW | 7 | NNE | |
| Fort Dix | NJ | 2026-05-09 16:15 | USFS | 63 | 52 | 67 | 0.00 | 3 | N | 7 | ENE | |
| Fort Dix | NJ | 2026-05-09 16:10 | USFS | 64 | 51 | 63 | 0.00 | 5 | NNW | 10 | NNW | |
| Fort Dix | NJ | 2026-05-09 17:20 | USFS | 63 | 53 | 69 | 0.00 | 4 | NNW | 7 | NW | |
| Fort Dix | NJ | 2026-05-09 17:30 | USFS | 63 | 52 | 68 | 0.00 | 6 | N | 10 | N | |
| Fort Dix | NJ | 2026-05-09 18:55 | USFS | 58 | 56 | 93 | 0.00 | 1 | NE | 5 | ENE | |
| Fort Dix | NJ | 2026-05-09 18:20 | USFS | 61 | 53 | 76 | 0.00 | 2 | NNE | 6 | N | |
| Fort Dix | NJ | 2026-05-09 18:50 | USFS | 58 | 56 | 93 | 0.00 | 4 | ENE | 6 | ENE | |
| Fort Dix | NJ | 2026-05-09 18:45 | USFS | 58 | 56 | 91 | 0.00 | 3 | ENE | 6 | NE | |
| Fort Dix | NJ | 2026-05-09 18:40 | USFS | 58 | 56 | 91 | 0.04 | 2 | N | 6 | NE | |
| Fort Dix | NJ | 2026-05-09 18:35 | USFS | 59 | 55 | 87 | 0.02 | 2 | N | 5 | ENE | |
| Fort Dix | NJ | 2026-05-09 18:30 | USFS | 60 | 54 | 81 | 0.00 | 0 | NE | 6 | NNE | |
| Fort Dix | NJ | 2026-05-09 18:25 | USFS | 60 | 53 | 78 | 0.00 | 1 | N | 7 | NE | |
| Fort Dix | NJ | 2026-05-09 18:15 | USFS | 61 | 52 | 73 | 0.00 | 3 | N | 8 | N | |
| Fort Dix | NJ | 2026-05-09 17:35 | USFS | 63 | 52 | 67 | 0.00 | 4 | NNE | 11 | NNE | |
| Fort Dix | NJ | 2026-05-09 18:10 | USFS | 62 | 52 | 70 | 0.00 | 7 | N | 12 | N | |
| Fort Dix | NJ | 2026-05-09 18:05 | USFS | 62 | 52 | 69 | 0.00 | 3 | NNW | 11 | NNW | |
| Fort Dix | NJ | 2026-05-09 18:00 | USFS | 62 | 52 | 68 | 0.00 | 4 | N | 10 | NNW | |
| Fort Dix | NJ | 2026-05-09 17:55 | USFS | 63 | 51 | 67 | 0.00 | 2 | E | 10 | N | |
| Fort Dix | NJ | 2026-05-09 17:50 | USFS | 63 | 52 | 67 | 0.00 | 5 | NW | 11 | NNE | |
| Fort Dix | NJ | 2026-05-09 17:45 | USFS | 63 | 52 | 67 | 0.00 | 6 | NE | 10 | N | |
| Fort Dix | NJ | 2026-05-09 17:40 | USFS | 63 | 51 | 67 | 0.00 | 2 | NE | 8 | N | |
| Fort Dix | NJ | 2026-05-10 09:55 | USFS | 57 | -37 | 1 | 0.00 | 2 | SSW | 3 | S |
data collection created in 0.062460899353027 (queried in 0.017600) rendered in: 0.00080513954162598

